SBOSBO PIK / EGPK
Speedbird OnlineSpeedbird Online PIK / EGPK

Glasgow Prestwick Airport
03:31 5.4°C

Location Prestwick, United Kingdom
Latitude: 55.5093994140625
Longitude: -4.586669921875
Local Time 03:31 on 24 Apr 2024
UTC +1 hours (Europe/London)
METAR EGPK 240150Z AUTO 05004KT 9999 NCD 06/02 Q1022
TAF TAF AMD EGPK 240039Z 2400/2424 07005KT 9999 FEW035 PROB30 2400/2406 8000 BECMG 2409/2412 28010KT
Weather As Of 24 Apr 2024 03:31
Description Few clouds
Wind 7 km/h from North-East (50°)
Cloud Cover 14%
Precipitation Rain: none, Snow: none
Sunrise 05:51
Sunset 20:41
NOTAM 16 active NOTAM
Rotations During the last 90 days there were
11 flights from PIK
11 flights to PIK
1 flights to SNN
Web Airport Website | Wikipedia
Codes IATA: PIK
ICAO: EGPK
Altitude 20 Meter / 65 Feet
Distance 542 KM / 337 Miles
from London.
Runways
RunwayLength (m)Surface
031905Asphalt
122986Partial
211905Asphalt
302986Partial
Radio
TypeDescriptionFrequency
APPAPP120.55
ATISATIS121.125
RADARPrestwick Radar129.45
TWRTWR118.15
Live ATC



Support Speedbird Online

© 2017-2024 Speedbird Online